Russell, Canada
Current Conditions -  °F | °C
As of 12:00 PM on Wednesday 26 Nov 2014 (Local Time) from CYDN Reporting Station
Clear Clear  
Wind Chill: -22°   Ceiling: Unl
Heat Index: -8°   Visibility: 9mi
Dew Point: -13°   Wind: 7mph
Humidity: 77%   Direction: 250°WSW
Pressure: 30.51"   Gusts: NA
Location:  50.78°N, 101.28°W
Report Text: CYDN 261800Z AUTO 25006KT 9SM CLR M22/M25 A3051 RMK SLP372
Loading
Personal Weather Stations






























Interactive Weather Map New forecast layout! Learn more

10-Day Weather Forecast

Advertisements
Track Severe Weather on mobile